createdAt,value
2019-02-23T00:00:29.065Z,0.00
2019-02-23T00:01:39.529Z,0.00
2019-02-23T00:02:28.969Z,0.00
2019-02-23T00:03:29.022Z,0.00
2019-02-23T00:04:28.963Z,0.00
2019-02-23T00:05:29.095Z,0.00
2019-02-23T00:06:30.118Z,0.00
2019-02-23T00:07:28.856Z,0.00
2019-02-23T00:08:28.848Z,0.00
2019-02-23T00:09:38.392Z,0.00
2019-02-23T00:10:28.979Z,0.00
2019-02-23T00:11:28.886Z,0.00
2019-02-23T00:12:28.882Z,0.00
2019-02-23T00:13:28.922Z,0.00
2019-02-23T00:14:28.834Z,0.00
2019-02-23T00:15:28.771Z,0.00
2019-02-23T00:16:28.796Z,0.00
2019-02-23T00:17:28.774Z,0.00
2019-02-23T00:18:28.745Z,0.00
2019-02-23T00:19:28.729Z,0.00
2019-02-23T00:20:28.719Z,0.00
2019-02-23T00:21:28.727Z,0.00
2019-02-23T00:22:28.730Z,0.00
2019-02-23T00:23:28.690Z,0.00
2019-02-23T00:24:28.676Z,0.00
2019-02-23T00:25:29.677Z,0.00
2019-02-23T00:26:28.671Z,0.00
2019-02-23T00:27:28.637Z,0.00
2019-02-23T00:28:28.626Z,0.00
2019-02-23T00:29:28.630Z,0.00
2019-02-23T00:30:28.605Z,0.00
2019-02-23T00:31:28.623Z,0.00
2019-02-23T00:32:28.604Z,0.00
2019-02-23T00:33:28.593Z,0.00
2019-02-23T00:34:28.563Z,0.00
2019-02-23T00:35:28.570Z,0.00
2019-02-23T00:36:28.541Z,0.00
2019-02-23T00:37:28.542Z,0.00
2019-02-23T00:38:28.554Z,0.00
2019-02-23T00:39:28.516Z,0.00
2019-02-23T00:40:28.517Z,0.00
2019-02-23T00:41:28.487Z,0.00
2019-02-23T00:42:28.503Z,0.00
2019-02-23T00:43:28.461Z,0.00
2019-02-23T00:44:37.171Z,0.00
2019-02-23T00:45:28.547Z,0.00
2019-02-23T00:46:28.519Z,0.00
2019-02-23T00:47:28.498Z,0.00
2019-02-23T00:48:28.585Z,0.00
2019-02-23T00:49:35.870Z,0.00
2019-02-23T00:50:29.444Z,0.00
2019-02-23T00:51:28.413Z,0.00
2019-02-23T00:52:28.360Z,0.00
2019-02-23T00:53:28.393Z,0.00
2019-02-23T00:54:28.354Z,0.00
2019-02-23T00:55:28.364Z,0.00
2019-02-23T00:56:28.332Z,0.00
2019-02-23T00:57:28.310Z,0.00
2019-02-23T00:58:28.306Z,0.00
2019-02-23T00:59:28.303Z,0.00
2019-02-23T01:00:28.275Z,0.00
2019-02-23T01:01:28.390Z,0.00
2019-02-23T01:02:28.262Z,0.00
2019-02-23T01:03:28.245Z,0.00
2019-02-23T01:04:28.259Z,0.00
2019-02-23T01:05:28.249Z,0.00
2019-02-23T01:06:28.290Z,0.00
2019-02-23T01:07:28.201Z,0.00
2019-02-23T01:08:28.214Z,0.00
2019-02-23T01:09:28.190Z,0.00
2019-02-23T01:10:28.199Z,0.00
2019-02-23T01:11:28.162Z,0.00
2019-02-23T01:12:28.150Z,0.00
2019-02-23T01:13:28.129Z,0.00
2019-02-23T01:14:28.175Z,0.00
2019-02-23T01:15:28.143Z,0.00
2019-02-23T01:16:28.101Z,0.00
2019-02-23T01:17:28.095Z,0.00
2019-02-23T01:18:28.081Z,0.00
2019-02-23T01:19:28.071Z,0.00
2019-02-23T01:20:28.073Z,0.00
2019-02-23T01:21:28.082Z,0.00
2019-02-23T01:22:28.048Z,0.00
2019-02-23T01:23:28.026Z,0.00
2019-02-23T01:24:28.085Z,0.00
2019-02-23T01:25:28.011Z,0.00
2019-02-23T01:26:28.022Z,0.00
2019-02-23T01:27:27.989Z,0.00
2019-02-23T01:28:28.036Z,0.00
2019-02-23T01:29:27.965Z,0.00
2019-02-23T01:30:27.955Z,0.00
2019-02-23T01:31:27.938Z,0.00
2019-02-23T01:32:27.943Z,0.00
2019-02-23T01:33:27.922Z,0.00
2019-02-23T01:34:27.914Z,0.00
2019-02-23T01:35:27.929Z,0.00
2019-02-23T01:36:27.890Z,0.00
2019-02-23T01:37:27.889Z,0.00
2019-02-23T01:38:27.890Z,0.00
2019-02-23T01:39:27.855Z,0.00
2019-02-23T01:40:27.847Z,0.00
2019-02-23T01:41:27.832Z,0.00
2019-02-23T01:42:27.887Z,0.00
2019-02-23T01:43:27.809Z,0.00
2019-02-23T01:44:27.800Z,0.00
2019-02-23T01:45:27.873Z,0.00
2019-02-23T01:46:27.784Z,0.00
2019-02-23T01:47:27.761Z,0.00
2019-02-23T01:48:27.769Z,0.00
2019-02-23T01:49:27.754Z,0.00
2019-02-23T01:50:27.739Z,0.00
2019-02-23T01:51:27.746Z,0.00
2019-02-23T01:52:27.707Z,0.00
2019-02-23T01:53:27.728Z,0.00
2019-02-23T01:54:27.688Z,0.00
2019-02-23T01:55:27.678Z,0.00
2019-02-23T01:56:27.670Z,0.00
2019-02-23T01:57:27.656Z,0.00
2019-02-23T01:58:27.654Z,0.00
2019-02-23T01:59:27.681Z,0.00
2019-02-23T02:00:28.619Z,0.00
2019-02-23T02:01:27.624Z,0.00
2019-02-23T02:02:27.601Z,0.00
2019-02-23T02:03:27.592Z,0.00
2019-02-23T02:04:27.610Z,0.00
2019-02-23T02:05:27.662Z,0.00
2019-02-23T02:06:27.565Z,0.00
2019-02-23T02:07:27.626Z,0.00
2019-02-23T02:08:27.543Z,0.00
2019-02-23T02:09:27.562Z,0.00
2019-02-23T02:10:27.517Z,0.00
2019-02-23T02:11:27.519Z,0.00
2019-02-23T02:12:27.503Z,0.00
2019-02-23T02:13:27.526Z,0.00
2019-02-23T02:14:27.474Z,0.00
2019-02-23T02:15:27.472Z,0.00
2019-02-23T02:16:27.455Z,0.00
2019-02-23T02:17:27.440Z,0.00
2019-02-23T02:18:27.419Z,0.00
2019-02-23T02:19:27.426Z,0.00
2019-02-23T02:20:27.488Z,0.00
2019-02-23T02:21:27.390Z,0.00
2019-02-23T02:22:27.383Z,0.00
2019-02-23T02:23:27.387Z,0.00
2019-02-23T02:24:27.375Z,0.00
2019-02-23T02:25:27.346Z,0.00
2019-02-23T02:26:27.341Z,0.00
2019-02-23T02:27:27.328Z,0.00
2019-02-23T02:28:27.358Z,0.00
2019-02-23T02:29:27.304Z,0.00
2019-02-23T02:30:27.940Z,0.00
2019-02-23T02:31:27.305Z,0.00
2019-02-23T02:32:27.271Z,0.00
2019-02-23T02:33:27.276Z,0.00
2019-02-23T02:34:27.262Z,0.00
2019-02-23T02:35:27.264Z,0.00
2019-02-23T02:36:27.531Z,0.00
2019-02-23T02:37:27.249Z,0.00
2019-02-23T02:38:27.216Z,0.00
2019-02-23T02:39:27.207Z,0.00
2019-02-23T02:40:27.218Z,0.00
2019-02-23T02:41:27.188Z,0.00
2019-02-23T02:42:27.173Z,0.00
2019-02-23T02:43:27.159Z,0.00
2019-02-23T02:44:27.159Z,0.00
2019-02-23T02:45:27.939Z,0.00
2019-02-23T02:46:27.121Z,0.00
2019-02-23T02:47:36.891Z,0.00
2019-02-23T02:48:27.190Z,0.00
2019-02-23T02:49:27.121Z,0.00
2019-02-23T02:50:27.118Z,0.00
2019-02-23T02:51:27.142Z,0.00
2019-02-23T02:52:27.127Z,0.00
2019-02-23T02:53:27.981Z,0.00
2019-02-23T02:54:27.036Z,0.00
2019-02-23T02:55:27.049Z,0.00
2019-02-23T02:56:27.013Z,0.00
2019-02-23T02:57:27.016Z,0.00
2019-02-23T02:58:27.058Z,0.00
2019-02-23T02:59:26.977Z,0.00
2019-02-23T03:00:27.028Z,0.00
2019-02-23T03:01:26.967Z,0.00
2019-02-23T03:02:26.946Z,0.00
2019-02-23T03:03:26.980Z,0.00
2019-02-23T03:04:26.940Z,0.00
2019-02-23T03:05:26.910Z,0.00
2019-02-23T03:06:26.907Z,0.00
2019-02-23T03:07:26.886Z,0.00
2019-02-23T03:08:26.878Z,0.00
2019-02-23T03:09:27.004Z,0.00
2019-02-23T03:10:27.420Z,0.00
2019-02-23T03:11:26.851Z,0.00
2019-02-23T03:12:26.831Z,0.00
2019-02-23T03:13:26.827Z,0.00
2019-02-23T03:14:26.952Z,0.00
2019-02-23T03:15:27.462Z,0.00
2019-02-23T03:16:26.798Z,0.00
2019-02-23T03:17:26.777Z,0.00
2019-02-23T03:18:26.770Z,0.00
2019-02-23T03:19:26.760Z,0.00
2019-02-23T03:20:36.295Z,0.00
2019-02-23T03:21:27.767Z,0.00
2019-02-23T03:22:26.751Z,0.00
2019-02-23T03:23:26.721Z,0.00
2019-02-23T03:24:26.709Z,0.00
2019-02-23T03:25:26.695Z,0.00
2019-02-23T03:26:26.696Z,0.00
2019-02-23T03:27:26.685Z,0.00
2019-02-23T03:28:26.745Z,0.00
2019-02-23T03:29:26.659Z,0.00
2019-02-23T03:30:26.838Z,0.00
2019-02-23T03:31:26.654Z,0.00
2019-02-23T03:32:26.631Z,0.00
2019-02-23T03:33:26.616Z,0.00
2019-02-23T03:34:26.633Z,0.00
2019-02-23T03:35:26.587Z,0.00
2019-02-23T03:36:26.574Z,0.00
2019-02-23T03:37:26.572Z,0.00
2019-02-23T03:38:26.557Z,0.00
2019-02-23T03:39:37.847Z,0.00
2019-02-23T03:40:26.566Z,0.00
2019-02-23T03:41:27.500Z,0.00
2019-02-23T03:42:27.584Z,0.00
2019-02-23T03:43:35.282Z,0.00
2019-02-23T03:44:28.064Z,0.00
2019-02-23T03:45:26.529Z,0.00
2019-02-23T03:46:37.965Z,0.00
2019-02-23T03:47:37.199Z,0.00
2019-02-23T03:48:27.165Z,0.00
2019-02-23T03:49:26.446Z,0.00
2019-02-23T03:50:48.744Z,0.00
2019-02-23T03:51:27.476Z,0.00
2019-02-23T03:52:26.412Z,0.00
2019-02-23T03:53:26.449Z,0.00
2019-02-23T03:54:27.192Z,0.00
2019-02-23T03:55:26.521Z,0.00
2019-02-23T03:56:26.391Z,0.00
2019-02-23T03:57:26.342Z,0.00
2019-02-23T03:58:28.662Z,0.00
2019-02-23T03:59:26.321Z,0.00
2019-02-23T04:00:26.411Z,0.00
2019-02-23T04:01:26.485Z,0.00
2019-02-23T04:02:26.312Z,0.00
2019-02-23T04:03:26.280Z,0.00
2019-02-23T04:04:28.148Z,0.00
2019-02-23T04:05:26.253Z,0.00
2019-02-23T04:06:26.256Z,0.00
2019-02-23T04:07:26.322Z,0.00
2019-02-23T04:08:26.227Z,0.00
2019-02-23T04:09:26.244Z,0.00
2019-02-23T04:10:36.066Z,0.00
2019-02-23T04:11:37.363Z,0.00
2019-02-23T04:12:26.275Z,0.00
2019-02-23T04:13:40.845Z,0.00
2019-02-23T04:14:37.121Z,0.00
2019-02-23T04:15:26.214Z,0.00
2019-02-23T04:16:36.145Z,0.00
2019-02-23T04:17:26.234Z,0.00
2019-02-23T04:18:35.628Z,0.00
2019-02-23T04:20:37.530Z,0.00
2019-02-23T04:22:48.875Z,0.00
2019-02-23T04:23:48.724Z,0.00
2019-02-23T04:24:48.784Z,0.00
2019-02-23T04:25:48.865Z,0.00
2019-02-23T04:26:48.802Z,0.00
2019-02-23T04:27:48.650Z,0.00
2019-02-23T04:28:48.624Z,0.00
2019-02-23T04:29:49.299Z,0.00
2019-02-23T04:30:48.625Z,0.00
2019-02-23T04:31:48.582Z,0.00
2019-02-23T04:32:48.615Z,0.00
2019-02-23T04:33:58.489Z,0.00
2019-02-23T04:34:48.642Z,0.00
2019-02-23T04:35:48.562Z,0.00
2019-02-23T04:36:48.620Z,0.00
2019-02-23T04:37:49.395Z,0.00
2019-02-23T04:38:48.647Z,0.00
2019-02-23T04:39:48.515Z,0.00
2019-02-23T04:40:48.486Z,0.00
2019-02-23T04:41:59.408Z,0.00
2019-02-23T04:42:48.554Z,0.00
2019-02-23T04:43:48.522Z,0.00
2019-02-23T04:44:48.498Z,0.00
2019-02-23T04:45:48.583Z,0.00
2019-02-23T04:46:50.416Z,0.00
2019-02-23T04:47:48.410Z,0.00
2019-02-23T04:48:58.333Z,0.00
2019-02-23T04:49:48.442Z,0.00
2019-02-23T04:50:59.559Z,0.00
2019-02-23T04:51:48.470Z,0.00
2019-02-23T04:52:48.495Z,0.00
2019-02-23T04:53:48.458Z,0.00
2019-02-23T04:56:01.063Z,0.00
2019-02-23T04:57:01.894Z,0.00
2019-02-23T04:58:11.747Z,0.00
2019-02-23T04:59:10.416Z,0.00
2019-02-23T05:00:01.441Z,0.00
2019-02-23T05:01:01.813Z,0.00
2019-02-23T05:02:00.795Z,0.00
2019-02-23T05:03:00.778Z,0.00
2019-02-23T05:04:12.178Z,0.00
2019-02-23T05:05:00.836Z,0.00
2019-02-23T05:06:00.817Z,0.00
2019-02-23T05:07:00.793Z,0.00
2019-02-23T05:08:09.455Z,0.00
2019-02-23T05:09:00.888Z,0.00
2019-02-23T05:10:00.782Z,0.00
2019-02-23T05:11:00.747Z,0.00
2019-02-23T05:12:00.790Z,0.00
2019-02-23T05:13:00.736Z,0.00
2019-02-23T05:14:00.806Z,0.00
2019-02-23T05:15:09.562Z,0.00
2019-02-23T05:16:00.733Z,0.00
2019-02-23T05:17:01.555Z,0.00
2019-02-23T05:18:14.725Z,0.00
2019-02-23T05:19:01.773Z,0.00
2019-02-23T05:20:11.162Z,0.00
2019-02-23T05:21:11.420Z,0.00
2019-02-23T05:23:14.728Z,0.00
2019-02-23T05:24:14.594Z,0.00
2019-02-23T05:25:25.357Z,0.00
2019-02-23T05:26:14.560Z,0.00
2019-02-23T05:27:14.535Z,0.00
2019-02-23T05:29:33.147Z,0.00
2019-02-23T05:31:44.379Z,0.00
2019-02-23T05:32:54.321Z,0.00
2019-02-23T05:33:44.994Z,0.00
2019-02-23T05:34:53.725Z,0.00
2019-02-23T05:35:44.203Z,4.00
2019-02-23T05:36:44.192Z,4.00
2019-02-23T05:37:44.183Z,0.00
2019-02-23T05:38:44.152Z,4.00
2019-02-23T05:40:57.892Z,4.00
2019-02-23T05:43:09.157Z,4.00
2019-02-23T05:45:25.060Z,8.00
2019-02-23T05:46:25.465Z,8.00
2019-02-23T05:47:24.916Z,12.00
2019-02-23T05:48:35.544Z,12.00
2019-02-23T05:49:37.002Z,16.00
2019-02-23T05:50:24.879Z,16.00
2019-02-23T05:51:24.827Z,20.00
2019-02-23T05:52:34.168Z,24.00
2019-02-23T05:54:36.071Z,36.00
2019-02-23T05:56:47.464Z,48.00
2019-02-23T05:57:47.309Z,52.00
2019-02-23T05:58:47.260Z,56.00
2019-02-23T05:59:47.250Z,60.00
2019-02-23T06:00:47.329Z,68.00
2019-02-23T06:01:47.292Z,76.00
2019-02-23T06:02:47.264Z,88.00
2019-02-23T06:03:47.238Z,96.00
2019-02-23T06:04:47.298Z,108.00
2019-02-23T06:05:47.169Z,116.00
2019-02-23T06:06:47.138Z,128.00
2019-02-23T06:07:48.989Z,140.00
2019-02-23T06:08:47.139Z,152.00
2019-02-23T06:09:47.107Z,164.00
2019-02-23T06:10:55.794Z,180.00
2019-02-23T06:11:47.158Z,196.00
2019-02-23T06:12:47.101Z,212.00
2019-02-23T06:13:47.117Z,232.00
2019-02-23T06:14:47.103Z,248.00
2019-02-23T06:15:47.102Z,268.00
2019-02-23T06:16:47.073Z,292.00
2019-02-23T06:17:47.024Z,312.00
2019-02-23T06:18:47.049Z,340.00
2019-02-23T06:19:47.056Z,372.00
2019-02-23T06:20:47.550Z,404.00
2019-02-23T06:21:53.499Z,444.00
2019-02-23T06:22:48.022Z,484.00
2019-02-23T06:23:47.013Z,512.00
2019-02-23T06:24:55.641Z,544.00
2019-02-23T06:25:56.885Z,564.00
2019-02-23T06:27:58.308Z,600.00
2019-02-23T06:28:58.172Z,608.00
2019-02-23T06:29:58.221Z,620.00
2019-02-23T06:31:09.412Z,632.00
2019-02-23T06:32:06.845Z,648.00
2019-02-23T06:32:58.150Z,672.00
2019-02-23T06:34:15.409Z,700.00
2019-02-23T06:36:11.381Z,780.00
2019-02-23T06:37:11.285Z,820.00
2019-02-23T06:38:20.875Z,860.00
2019-02-23T06:39:11.316Z,888.00
2019-02-23T06:40:12.083Z,912.00
2019-02-23T06:41:11.314Z,944.00
2019-02-23T06:43:23.840Z,1000.00
2019-02-23T06:44:22.477Z,1016.00
2019-02-23T06:45:34.271Z,1036.00
2019-02-23T06:47:48.007Z,1112.00
2019-02-23T06:49:59.332Z,1160.00
2019-02-23T06:52:13.119Z,1208.00
2019-02-23T06:53:20.059Z,1228.00
2019-02-23T06:54:10.256Z,1244.00
2019-02-23T06:56:23.430Z,1296.00
2019-02-23T06:57:23.262Z,1332.00
2019-02-23T06:58:33.969Z,1356.00
2019-02-23T06:59:31.893Z,1368.00
2019-02-23T07:00:24.653Z,1420.00
2019-02-23T07:01:23.221Z,1456.00
2019-02-23T07:02:36.413Z,1480.00
2019-02-23T07:03:23.198Z,1500.00
2019-02-23T07:04:31.836Z,1512.00
2019-02-23T07:05:23.793Z,1528.00
2019-02-23T07:06:23.137Z,1544.00
2019-02-23T07:07:25.789Z,1572.00
2019-02-23T07:08:23.150Z,1616.00
2019-02-23T07:09:23.084Z,1644.00
2019-02-23T07:10:31.807Z,1656.00
2019-02-23T07:11:23.088Z,1660.00
2019-02-23T07:12:32.576Z,1660.00
2019-02-23T07:13:23.073Z,1660.00
2019-02-23T07:14:23.030Z,1668.00
2019-02-23T07:15:35.618Z,1680.00
2019-02-23T07:16:23.025Z,1724.00
2019-02-23T07:17:23.023Z,1760.00
2019-02-23T07:18:36.062Z,1776.00
2019-02-23T07:20:44.117Z,1784.00
2019-02-23T07:21:38.856Z,1800.00
2019-02-23T07:22:48.558Z,1836.00
2019-02-23T07:23:39.495Z,1860.00
2019-02-23T07:24:37.798Z,1864.00
2019-02-23T07:25:37.838Z,1880.00
2019-02-23T07:26:37.820Z,1892.00
2019-02-23T07:27:37.906Z,1876.00
2019-02-23T07:28:37.763Z,1860.00
2019-02-23T07:29:37.727Z,1864.00
2019-02-23T07:32:02.237Z,1868.00
2019-02-23T07:33:02.127Z,1880.00
2019-02-23T07:34:02.005Z,1888.00
2019-02-23T07:35:02.039Z,1900.00
2019-02-23T07:36:02.026Z,1908.00
2019-02-23T07:37:02.018Z,1928.00
2019-02-23T07:38:01.976Z,1944.00
2019-02-23T07:39:02.005Z,1944.00
2019-02-23T07:40:01.956Z,1940.00
2019-02-23T07:41:01.958Z,1928.00
2019-02-23T07:42:01.973Z,1896.00
2019-02-23T07:43:01.904Z,1880.00
2019-02-23T07:44:03.544Z,1892.00
2019-02-23T07:45:01.911Z,1888.00
2019-02-23T07:46:01.954Z,1916.00
2019-02-23T07:47:01.925Z,1936.00
2019-02-23T07:48:01.921Z,1968.00
2019-02-23T07:49:01.886Z,1992.00
2019-02-23T07:50:01.854Z,1964.00
2019-02-23T07:51:01.848Z,1948.00
2019-02-23T07:52:01.889Z,1936.00
2019-02-23T07:53:01.813Z,1900.00
2019-02-23T07:54:01.870Z,1872.00
2019-02-23T07:55:01.780Z,1860.00
2019-02-23T07:56:01.794Z,1832.00
2019-02-23T07:57:01.760Z,1804.00
2019-02-23T07:58:01.765Z,1796.00
2019-02-23T07:59:01.774Z,1796.00
2019-02-23T08:00:01.771Z,1820.00
2019-02-23T08:01:01.771Z,1860.00
2019-02-23T08:02:01.758Z,1884.00
2019-02-23T08:03:01.778Z,1884.00
2019-02-23T08:04:01.840Z,1900.00
2019-02-23T08:05:01.698Z,1896.00
2019-02-23T08:06:01.648Z,1872.00
2019-02-23T08:07:01.661Z,1868.00
2019-02-23T08:08:01.635Z,1876.00
2019-02-23T08:09:01.620Z,1864.00
2019-02-23T08:10:01.627Z,1860.00
2019-02-23T08:11:01.594Z,1844.00
2019-02-23T08:12:01.591Z,1848.00
2019-02-23T08:13:01.573Z,1848.00
2019-02-23T08:14:01.578Z,1860.00
2019-02-23T08:15:01.567Z,1868.00
2019-02-23T08:16:01.541Z,1876.00
2019-02-23T08:17:01.527Z,1884.00
2019-02-23T08:18:01.519Z,1892.00
2019-02-23T08:19:01.523Z,1900.00
2019-02-23T08:20:01.497Z,1904.00
2019-02-23T08:21:01.507Z,1904.00
2019-02-23T08:22:01.482Z,1888.00
2019-02-23T08:23:01.465Z,1884.00
2019-02-23T08:24:01.469Z,1880.00
2019-02-23T08:25:01.457Z,1868.00
2019-02-23T08:26:01.426Z,1872.00
2019-02-23T08:27:01.426Z,1864.00
2019-02-23T08:28:01.406Z,1860.00
2019-02-23T08:29:01.438Z,1852.00
2019-02-23T08:30:01.415Z,1852.00
2019-02-23T08:31:01.380Z,1860.00
2019-02-23T08:32:01.359Z,1864.00
2019-02-23T08:33:01.359Z,1872.00
2019-02-23T08:34:01.345Z,1884.00
2019-02-23T08:35:01.368Z,1888.00
2019-02-23T08:36:01.338Z,1888.00
2019-02-23T08:37:01.314Z,1880.00
2019-02-23T08:38:01.299Z,1876.00
2019-02-23T08:39:01.289Z,1868.00
2019-02-23T08:40:01.282Z,1864.00
2019-02-23T08:41:01.291Z,1864.00
2019-02-23T08:42:01.269Z,1860.00
2019-02-23T08:43:01.250Z,1864.00
2019-02-23T08:44:01.240Z,1864.00
2019-02-23T08:45:01.230Z,1864.00
2019-02-23T08:46:01.215Z,1868.00
2019-02-23T08:47:01.237Z,1868.00
2019-02-23T08:48:01.187Z,1872.00
2019-02-23T08:49:01.174Z,1876.00
2019-02-23T08:50:01.167Z,1872.00
2019-02-23T08:51:01.153Z,1880.00
2019-02-23T08:52:02.054Z,1880.00
2019-02-23T08:53:01.170Z,1884.00
2019-02-23T08:54:01.129Z,1892.00
2019-02-23T08:55:01.116Z,1884.00
2019-02-23T08:56:02.072Z,1872.00
2019-02-23T08:57:01.090Z,1860.00
2019-02-23T08:58:01.097Z,1848.00
2019-02-23T08:59:01.091Z,1836.00
2019-02-23T09:00:01.064Z,1828.00
2019-02-23T09:01:01.046Z,1828.00
2019-02-23T09:02:01.042Z,1820.00
2019-02-23T09:03:01.050Z,1812.00
2019-02-23T09:04:01.024Z,1792.00
2019-02-23T09:05:01.014Z,1780.00
2019-02-23T09:06:00.990Z,1768.00
2019-02-23T09:07:01.009Z,1748.00
2019-02-23T09:08:01.032Z,1724.00
2019-02-23T09:09:00.984Z,1708.00
2019-02-23T09:10:00.953Z,1700.00
2019-02-23T09:11:00.939Z,1688.00
2019-02-23T09:12:00.933Z,1688.00
2019-02-23T09:13:00.914Z,1680.00
2019-02-23T09:14:11.924Z,1700.00
2019-02-23T09:15:01.012Z,1704.00
2019-02-23T09:16:01.040Z,1704.00
2019-02-23T09:17:01.038Z,1704.00
2019-02-23T09:18:00.908Z,1704.00
2019-02-23T09:19:00.876Z,1704.00
2019-02-23T09:20:00.842Z,1708.00
2019-02-23T09:21:00.845Z,1704.00
2019-02-23T09:22:00.817Z,1704.00
2019-02-23T09:23:00.813Z,1696.00
2019-02-23T09:24:00.794Z,1692.00
2019-02-23T09:25:00.833Z,1688.00
2019-02-23T09:26:00.776Z,1692.00
2019-02-23T09:27:00.763Z,1692.00
2019-02-23T09:28:00.746Z,1696.00
2019-02-23T09:29:00.750Z,1696.00
2019-02-23T09:30:00.771Z,1704.00
2019-02-23T09:31:00.753Z,1712.00
2019-02-23T09:32:01.805Z,1720.00
2019-02-23T09:33:01.696Z,1732.00
2019-02-23T09:34:00.690Z,1736.00
2019-02-23T09:35:00.716Z,1740.00
2019-02-23T09:36:12.081Z,1748.00
2019-02-23T09:37:00.796Z,1752.00
2019-02-23T09:39:18.092Z,1764.00
2019-02-23T09:40:17.978Z,1764.00
2019-02-23T09:41:17.951Z,1772.00
2019-02-23T09:42:17.895Z,1772.00
2019-02-23T09:43:18.008Z,1780.00
2019-02-23T09:44:27.845Z,1784.00
2019-02-23T09:45:50.482Z,1796.00
2019-02-23T09:46:17.944Z,1804.00
2019-02-23T09:47:17.895Z,1812.00
2019-02-23T09:48:17.818Z,1816.00
2019-02-23T09:49:17.856Z,1816.00
2019-02-23T09:50:17.766Z,1828.00
2019-02-23T09:51:17.704Z,1832.00
2019-02-23T09:52:17.722Z,1836.00
2019-02-23T09:53:17.716Z,1840.00
2019-02-23T09:54:17.675Z,1844.00
2019-02-23T09:55:18.605Z,1852.00
2019-02-23T09:56:17.651Z,1860.00
2019-02-23T09:57:17.654Z,1864.00
2019-02-23T09:58:17.649Z,1876.00
2019-02-23T09:59:17.611Z,1888.00
2019-02-23T10:00:17.599Z,1892.00
2019-02-23T10:01:17.589Z,1896.00
2019-02-23T10:02:17.637Z,1904.00
2019-02-23T10:03:17.568Z,1912.00
2019-02-23T10:04:17.572Z,1932.00
2019-02-23T10:05:17.609Z,1944.00
2019-02-23T10:06:17.540Z,1948.00
2019-02-23T10:07:17.522Z,1960.00
2019-02-23T10:08:17.559Z,1960.00
2019-02-23T10:09:17.499Z,1968.00
2019-02-23T10:10:17.501Z,1964.00
2019-02-23T10:11:17.490Z,1960.00
2019-02-23T10:12:17.465Z,1908.00
2019-02-23T10:13:17.494Z,2012.00
2019-02-23T10:14:17.479Z,2060.00
2019-02-23T10:15:17.435Z,2044.00
2019-02-23T10:16:17.424Z,2016.00
2019-02-23T10:17:17.442Z,2008.00
2019-02-23T10:18:17.403Z,2036.00
2019-02-23T10:19:17.454Z,2044.00
2019-02-23T10:20:17.375Z,2060.00
2019-02-23T10:21:17.366Z,2068.00
2019-02-23T10:22:18.385Z,2104.00
2019-02-23T10:23:22.170Z,2144.00
2019-02-23T10:24:17.340Z,2192.00
2019-02-23T10:25:17.407Z,2228.00
2019-02-23T10:26:17.313Z,2304.00
2019-02-23T10:27:17.310Z,2400.00
2019-02-23T10:28:17.301Z,2464.00
2019-02-23T10:29:17.325Z,2436.00
2019-02-23T10:30:17.275Z,2428.00
2019-02-23T10:31:18.048Z,2372.00
2019-02-23T10:32:17.252Z,2412.00
2019-02-23T10:33:17.257Z,2260.00
2019-02-23T10:34:17.226Z,2240.00
2019-02-23T10:35:17.219Z,2304.00
2019-02-23T10:36:17.216Z,2284.00
2019-02-23T10:37:17.192Z,2308.00
2019-02-23T10:38:17.287Z,2252.00
2019-02-23T10:39:17.180Z,2124.00
2019-02-23T10:40:17.176Z,2076.00
2019-02-23T10:41:17.169Z,2048.00
2019-02-23T10:42:18.160Z,2048.00
2019-02-23T10:43:17.129Z,2036.00
2019-02-23T10:44:17.112Z,2036.00
2019-02-23T10:45:17.110Z,2032.00
2019-02-23T10:46:17.139Z,2028.00
2019-02-23T10:47:17.124Z,2028.00
2019-02-23T10:48:17.069Z,2040.00
2019-02-23T10:49:17.062Z,2044.00
2019-02-23T10:50:17.066Z,2036.00
2019-02-23T10:51:18.083Z,2032.00
2019-02-23T10:52:17.050Z,2040.00
2019-02-23T10:53:17.007Z,2044.00
2019-02-23T10:54:17.012Z,2044.00
2019-02-23T10:55:16.991Z,2052.00
2019-02-23T10:56:16.985Z,2064.00
2019-02-23T10:57:17.002Z,2068.00
2019-02-23T10:58:16.967Z,2088.00
2019-02-23T10:59:16.967Z,2092.00
2019-02-23T11:00:16.943Z,2088.00
2019-02-23T11:01:16.923Z,2120.00
2019-02-23T11:02:16.982Z,2156.00
2019-02-23T11:03:16.907Z,2176.00
2019-02-23T11:04:16.895Z,2192.00
2019-02-23T11:05:16.886Z,2208.00
2019-02-23T11:06:16.881Z,2156.00
2019-02-23T11:07:16.856Z,2248.00
2019-02-23T11:08:16.902Z,2288.00
2019-02-23T11:09:16.831Z,2324.00
2019-02-23T11:10:16.827Z,2348.00
2019-02-23T11:11:16.824Z,2360.00
2019-02-23T11:12:16.802Z,2388.00
2019-02-23T11:13:16.788Z,2300.00
2019-02-23T11:14:16.805Z,2388.00
2019-02-23T11:15:26.411Z,2452.00
2019-02-23T11:16:16.872Z,2452.00
2019-02-23T11:17:16.935Z,2452.00
2019-02-23T11:18:16.814Z,2496.00
2019-02-23T11:19:16.931Z,2484.00
2019-02-23T11:20:16.766Z,2528.00
2019-02-23T11:21:16.698Z,2576.00
2019-02-23T11:22:16.682Z,2600.00
2019-02-23T11:23:16.732Z,2652.00
2019-02-23T11:24:18.383Z,2664.00
2019-02-23T11:25:16.672Z,2696.00
2019-02-23T11:26:16.680Z,2704.00
2019-02-23T11:27:16.660Z,2772.00
2019-02-23T11:28:16.623Z,2820.00
2019-02-23T11:29:16.629Z,2880.00
2019-02-23T11:30:25.402Z,2912.00
2019-02-23T11:32:28.057Z,2932.00
2019-02-23T11:34:43.796Z,2912.00
2019-02-23T11:35:43.689Z,2948.00
2019-02-23T11:36:43.669Z,3024.00
2019-02-23T11:38:54.995Z,3016.00
2019-02-23T11:39:54.896Z,3016.00
2019-02-23T11:40:54.867Z,2980.00
2019-02-23T11:41:54.836Z,2912.00
2019-02-23T11:42:54.915Z,3108.00
2019-02-23T11:43:54.765Z,3076.00
2019-02-23T11:44:54.712Z,3060.00
2019-02-23T11:45:54.736Z,3208.00
2019-02-23T11:47:00.721Z,3052.00
2019-02-23T11:47:55.734Z,3144.00
2019-02-23T11:48:54.727Z,3272.00
2019-02-23T11:49:54.664Z,3252.00
2019-02-23T11:50:54.664Z,3220.00
2019-02-23T11:51:54.635Z,3524.00
2019-02-23T11:52:54.628Z,3480.00
2019-02-23T11:53:55.402Z,3436.00
2019-02-23T11:54:54.606Z,3432.00
2019-02-23T11:55:54.589Z,3604.00
2019-02-23T11:56:54.578Z,3640.00
2019-02-23T11:57:54.574Z,3808.00
2019-02-23T11:58:54.557Z,3944.00
2019-02-23T11:59:54.551Z,3896.00
2019-02-23T12:00:54.640Z,3840.00
2019-02-23T12:01:54.530Z,3832.00
2019-02-23T12:02:54.506Z,3840.00
2019-02-23T12:03:54.497Z,3788.00
2019-02-23T12:04:54.508Z,3756.00
2019-02-23T12:05:54.481Z,3708.00
2019-02-23T12:06:54.469Z,3872.00
2019-02-23T12:07:54.487Z,3944.00
2019-02-23T12:08:54.447Z,3892.00
2019-02-23T12:09:54.479Z,4064.00
2019-02-23T12:10:54.469Z,3448.00
2019-02-23T12:11:54.413Z,3708.00
2019-02-23T12:12:54.404Z,3512.00
2019-02-23T12:13:54.415Z,3660.00
2019-02-23T12:14:54.398Z,3808.00
2019-02-23T12:15:54.404Z,3744.00
2019-02-23T12:16:54.359Z,3356.00
2019-02-23T12:17:54.347Z,3840.00
2019-02-23T12:18:54.360Z,3860.00
2019-02-23T12:19:55.405Z,4120.00
2019-02-23T12:20:54.313Z,4220.00
2019-02-23T12:21:54.330Z,4396.00
2019-02-23T12:22:54.290Z,4280.00
2019-02-23T12:23:54.286Z,4364.00
2019-02-23T12:24:54.266Z,4272.00
2019-02-23T12:25:54.249Z,4472.00
2019-02-23T12:26:54.246Z,4548.00
2019-02-23T12:27:54.253Z,4864.00
2019-02-23T12:28:54.254Z,4736.00
2019-02-23T12:29:54.218Z,4604.00
2019-02-23T12:30:54.210Z,4552.00
2019-02-23T12:31:54.189Z,4664.00
2019-02-23T12:32:54.194Z,4684.00
2019-02-23T12:33:54.190Z,4580.00
2019-02-23T12:34:54.161Z,4616.00
2019-02-23T12:35:54.152Z,4480.00
2019-02-23T12:36:54.144Z,4468.00
2019-02-23T12:37:54.182Z,4612.00
2019-02-23T12:38:54.110Z,4616.00
2019-02-23T12:39:55.031Z,4344.00
2019-02-23T12:40:55.007Z,4308.00
2019-02-23T12:41:54.088Z,4320.00
2019-02-23T12:42:54.075Z,4612.00
2019-02-23T12:43:54.051Z,4452.00
2019-02-23T12:44:54.073Z,4340.00
2019-02-23T12:45:54.057Z,4316.00
2019-02-23T12:46:54.021Z,4376.00
2019-02-23T12:47:54.016Z,4376.00
2019-02-23T12:48:54.000Z,4268.00
2019-02-23T12:49:53.983Z,4296.00
2019-02-23T12:50:53.982Z,4416.00
2019-02-23T12:51:54.037Z,4404.00
2019-02-23T12:52:53.951Z,4440.00
2019-02-23T12:53:53.956Z,4616.00
2019-02-23T12:54:53.935Z,4596.00
2019-02-23T12:55:53.925Z,4396.00
2019-02-23T12:56:53.914Z,4256.00
2019-02-23T12:57:53.918Z,4356.00
2019-02-23T12:58:53.894Z,4144.00
2019-02-23T12:59:53.931Z,4020.00
2019-02-23T13:00:53.868Z,4104.00
2019-02-23T13:01:53.864Z,4380.00
2019-02-23T13:02:53.870Z,4560.00
2019-02-23T13:03:53.829Z,4728.00
2019-02-23T13:04:53.830Z,4600.00
2019-02-23T13:05:53.820Z,4348.00
2019-02-23T13:06:53.807Z,4540.00
2019-02-23T13:07:53.805Z,4476.00